Time;durP1;ratioP1;P1;durP2;ratioP2;P2;SDS_P1;SDS_P2;PMS_P1;PMS_P2;Temp;Humidity;BMP_temperature;BMP_pressure;BME280_temperature;BME280_humidity;BME280_pressure;Samples;Min_cycle;Max_cycle;Signal;HPM_P1;HPM_P2
2022/04/13 00:00:14;;;;;;;1.67;1.20;;;;;;;20.23;42.12;100971.78;4991300;28;20031;-76
2022/04/13 00:02:40;;;;;;;1.77;1.30;;;;;;;20.23;42.28;100969.03;4991368;28;20042;-76
2022/04/13 00:05:07;;;;;;;0.98;0.98;;;;;;;20.23;42.21;100966.28;4990714;28;20070;-75
2022/04/13 00:07:32;;;;;;;1.25;1.15;;;;;;;20.23;42.19;100957.19;4991089;28;20035;-76
2022/04/13 00:09:58;;;;;;;1.50;1.40;;;;;;;20.22;42.17;100964.63;4991073;28;20065;-76
2022/04/13 00:12:23;;;;;;;1.70;1.45;;;;;;;20.23;42.10;100973.72;4993018;28;20034;-76
2022/04/13 00:14:49;;;;;;;1.48;1.30;;;;;;;20.23;42.17;100968.22;4994441;28;20466;-75
2022/04/13 00:17:14;;;;;;;1.42;1.33;;;;;;;20.22;42.12;100970.13;4994189;28;20083;-76
2022/04/13 00:19:39;;;;;;;1.75;1.35;;;;;;;20.22;42.24;100974.81;4976889;28;20483;-75
2022/04/13 00:22:05;;;;;;;2.17;1.40;;;;;;;20.22;42.04;100977.59;4994330;28;20034;-76
2022/04/13 00:24:30;;;;;;;1.42;1.30;;;;;;;20.21;42.20;100984.19;4994337;28;20045;-76
2022/04/13 00:26:57;;;;;;;2.05;1.52;;;;;;;20.22;42.22;100974.81;4994283;28;20432;-76
2022/04/13 00:29:23;;;;;;;1.52;1.30;;;;;;;20.21;41.98;100982.28;4994312;28;20030;-76
2022/04/13 00:31:51;;;;;;;1.88;1.20;;;;;;;20.20;42.33;100977.84;4994100;28;20030;-76
2022/04/13 00:34:16;;;;;;;1.38;1.27;;;;;;;20.20;42.10;100986.13;4993657;28;20039;-76
2022/04/13 00:36:42;;;;;;;1.42;1.25;;;;;;;20.21;42.21;100986.94;4976783;28;20033;-77
2022/04/13 00:39:08;;;;;;;1.35;1.25;;;;;;;20.20;42.29;100994.38;4993884;28;20042;-76
2022/04/13 00:41:33;;;;;;;1.98;1.30;;;;;;;20.20;42.29;100983.38;4994443;28;20062;-76
2022/04/13 00:44:03;;;;;;;1.30;1.20;;;;;;;20.20;42.16;100994.38;4994190;28;20027;-76
2022/04/13 00:46:29;;;;;;;1.30;1.20;;;;;;;20.20;42.32;100996.31;4994117;28;20026;-76
2022/04/13 00:48:55;;;;;;;1.33;1.23;;;;;;;20.19;42.23;100995.47;4994266;28;20527;-77
2022/04/13 00:51:20;;;;;;;1.42;1.33;;;;;;;20.19;42.14;100998.22;4993869;28;20122;-77
2022/04/13 00:53:47;;;;;;;1.77;1.30;;;;;;;20.20;42.17;101002.66;4993692;28;20042;-77
2022/04/13 00:56:20;;;;;;;1.50;1.40;;;;;;;20.20;42.20;101012.84;4994258;28;20054;-76
2022/04/13 00:58:48;;;;;;;2.90;1.58;;;;;;;20.19;42.05;101013.94;4994125;28;20098;-76
2022/04/13 01:01:15;;;;;;;1.40;1.30;;;;;;;20.19;42.65;101019.47;4993743;28;20034;-76
2022/04/13 01:03:43;;;;;;;1.33;1.23;;;;;;;20.19;42.24;101019.47;4993211;28;20035;-76
2022/04/13 01:06:10;;;;;;;1.58;1.40;;;;;;;20.18;42.27;101020.56;4993619;28;20034;-76
2022/04/13 01:08:38;;;;;;;1.23;1.13;;;;;;;20.18;42.26;101023.31;4976199;28;20475;-76
2022/04/13 01:11:03;;;;;;;1.30;1.15;;;;;;;20.17;42.42;101025.25;5008684;28;20035;-76
2022/04/13 01:13:29;;;;;;;1.98;1.50;;;;;;;20.17;42.29;101025.25;4993593;28;20034;-77
2022/04/13 01:15:54;;;;;;;1.80;1.40;;;;;;;20.18;42.28;101031.56;4993488;28;20030;-77
2022/04/13 01:18:20;;;;;;;1.35;1.10;;;;;;;20.18;42.29;101045.34;4976081;28;20044;-77
2022/04/13 01:20:56;;;;;;;1.33;1.23;;;;;;;20.18;42.28;101048.09;4993471;28;20501;-76
2022/04/13 01:23:23;;;;;;;1.45;1.35;;;;;;;20.16;42.40;101045.63;4992594;28;20034;-77
2022/04/13 01:25:50;;;;;;;1.30;1.20;;;;;;;20.16;42.26;101048.38;4993337;28;20034;-76
2022/04/13 01:28:16;;;;;;;2.08;1.30;;;;;;;20.16;42.46;101051.13;4993325;28;20038;-77
2022/04/13 01:30:42;;;;;;;1.88;1.42;;;;;;;20.15;42.47;101050.31;4993412;28;20091;-76
2022/04/13 01:33:07;;;;;;;1.80;1.10;;;;;;;20.16;42.43;101059.38;4993286;28;20038;-76
2022/04/13 01:35:33;;;;;;;1.60;1.50;;;;;;;20.15;42.47;101061.31;4975398;28;20408;-76
2022/04/13 01:37:59;;;;;;;1.50;1.35;;;;;;;20.16;42.33;101059.38;4993257;28;20035;-76
2022/04/13 01:40:24;;;;;;;1.52;1.42;;;;;;;20.15;42.26;101064.09;4993187;28;20475;-77
2022/04/13 01:42:49;;;;;;;1.98;1.20;;;;;;;20.15;42.41;101072.34;4976051;28;20046;-76
2022/04/13 01:45:19;;;;;;;1.30;1.20;;;;;;;20.15;42.53;101074.25;4992772;28;20068;-77
2022/04/13 01:47:51;;;;;;;1.40;1.27;;;;;;;20.15;42.52;101079.75;4993022;28;20031;-76
2022/04/13 01:50:19;;;;;;;1.50;1.40;;;;;;;20.14;42.47;101087.22;5008388;28;20436;-77
2022/04/13 01:52:46;;;;;;;1.42;1.23;;;;;;;20.13;42.70;101080.03;4992716;28;20030;-76
2022/04/13 01:55:12;;;;;;;1.52;1.38;;;;;;;20.15;42.60;101085.28;4992900;28;20043;-76
2022/04/13 01:57:40;;;;;;;1.45;1.35;;;;;;;20.14;42.57;101080.88;4992564;28;20442;-76
2022/04/13 02:00:11;;;;;;;1.40;1.30;;;;;;;20.13;42.79;101077.28;4992890;28;20520;-76
2022/04/13 02:02:37;;;;;;;1.42;1.30;;;;;;;20.13;42.66;101079.22;4975725;28;20379;-77
2022/04/13 02:05:03;;;;;;;1.50;1.40;;;;;;;20.12;42.81;101085.81;4992325;28;20038;-77
2022/04/13 02:07:29;;;;;;;1.50;1.40;;;;;;;20.13;42.64;101087.47;4992643;28;20037;-78
2022/04/13 02:09:55;;;;;;;1.40;1.27;;;;;;;20.12;42.82;101083.91;4975167;28;20030;-77
2022/04/13 02:12:21;;;;;;;1.40;1.30;;;;;;;20.12;42.62;101085.81;4992605;28;20041;-77
2022/04/13 02:14:47;;;;;;;1.17;1.10;;;;;;;20.12;42.81;101097.69;4992649;28;20034;-77
2022/04/13 02:17:16;;;;;;;1.60;1.48;;;;;;;20.11;42.79;101098.78;4992830;28;20113;-78
2022/04/13 02:19:44;;;;;;;1.80;1.50;;;;;;;20.12;42.86;101099.59;4992935;28;20062;-76
2022/04/13 02:22:10;;;;;;;1.58;1.48;;;;;;;20.11;42.87;101098.78;4992560;28;20073;-76
2022/04/13 02:24:37;;;;;;;1.90;1.38;;;;;;;20.10;42.82;101102.63;4992525;28;20485;-76
2022/04/13 02:27:03;;;;;;;1.58;1.30;;;;;;;20.10;42.78;101099.88;4974962;28;20520;-76
2022/04/13 02:29:28;;;;;;;2.35;1.55;;;;;;;20.11;42.87;101098.78;4992431;28;20105;-76
2022/04/13 02:31:54;;;;;;;1.80;1.40;;;;;;;20.11;42.82;101106.22;4992006;28;20034;-76
2022/04/13 02:34:19;;;;;;;1.65;1.42;;;;;;;20.11;42.95;101106.22;4974109;28;20038;-76
2022/04/13 02:36:45;;;;;;;1.40;1.27;;;;;;;20.11;42.94;101114.50;4992324;28;20038;-76
2022/04/13 02:39:10;;;;;;;1.55;1.30;;;;;;;20.10;42.94;101110.88;4992230;28;20026;-75
2022/04/13 02:41:35;;;;;;;1.55;1.23;;;;;;;20.10;43.07;101113.63;4992267;28;20045;-75
2022/04/13 02:44:01;;;;;;;1.42;1.33;;;;;;;20.10;42.95;101110.88;4992097;28;20034;-76
2022/04/13 02:46:26;;;;;;;1.92;1.30;;;;;;;20.11;42.97;101114.50;4992196;28;20068;-75
2022/04/13 02:48:52;;;;;;;1.92;1.10;;;;;;;20.09;43.05;101117.50;4992072;28;20524;-76
2022/04/13 02:51:17;;;;;;;1.48;1.38;;;;;;;20.09;42.90;101112.00;4992065;28;20030;-76
2022/04/13 02:53:43;;;;;;;1.17;1.10;;;;;;;20.09;42.98;101116.66;4992102;28;20489;-76
2022/04/13 02:56:08;;;;;;;1.90;1.40;;;;;;;20.09;43.09;101123.03;4991408;28;20406;-76
2022/04/13 02:58:33;;;;;;;1.67;1.30;;;;;;;20.08;43.08;101118.59;4958492;28;20398;-76
2022/04/13 03:00:59;;;;;;;1.38;1.27;;;;;;;20.09;43.07;101117.50;4991981;28;20038;-76
2022/04/13 03:03:24;;;;;;;2.95;1.45;;;;;;;20.08;43.18;101120.53;4991941;28;20038;-76
2022/04/13 03:05:50;;;;;;;1.90;1.60;;;;;;;20.07;43.06;101116.94;4991253;28;20182;-76
2022/04/13 03:08:15;;;;;;;1.67;1.40;;;;;;;20.07;43.21;101122.44;4991819;28;20459;-76
2022/04/13 03:10:43;;;;;;;1.42;1.33;;;;;;;20.07;43.12;101127.97;4991396;28;20537;-76
2022/04/13 03:13:10;;;;;;;1.52;1.40;;;;;;;20.06;43.18;101123.53;4991846;28;20030;-76
2022/04/13 03:15:36;;;;;;;1.92;1.55;;;;;;;20.07;43.31;101121.63;4991780;28;20125;-76
2022/04/13 03:18:01;;;;;;;2.10;1.35;;;;;;;20.08;43.15;101117.78;4991503;28;20040;-76
2022/04/13 03:20:26;;;;;;;1.27;1.20;;;;;;;20.06;43.36;101112.53;4991613;28;20050;-76
2022/04/13 03:22:52;;;;;;;1.40;1.15;;;;;;;20.06;43.36;101118.03;4991936;28;20062;-76
2022/04/13 03:25:17;;;;;;;2.00;1.40;;;;;;;20.06;43.52;101114.47;4991680;28;20030;-76
2022/04/13 03:27:42;;;;;;;1.20;1.10;;;;;;;20.06;43.36;101119.97;4991647;28;20509;-76
2022/04/13 03:30:08;;;;;;;2.78;1.67;;;;;;;20.05;43.38;101116.41;4991485;28;20133;-76
2022/04/13 03:32:37;;;;;;;1.42;1.23;;;;;;;20.05;43.43;101115.56;4991517;28;20040;-76
2022/04/13 03:35:05;;;;;;;1.58;1.48;;;;;;;20.05;43.36;101126.56;4991132;28;20066;-76
2022/04/13 03:37:30;;;;;;;1.65;1.40;;;;;;;20.05;43.36;101129.31;4991438;28;20047;-76
2022/04/13 03:39:56;;;;;;;1.60;1.50;;;;;;;20.06;43.45;101125.47;4991437;28;20041;-76
2022/04/13 03:42:21;;;;;;;1.45;1.35;;;;;;;20.05;43.31;101124.66;4991574;28;20062;-76
2022/04/13 03:44:46;;;;;;;1.92;1.50;;;;;;;20.06;43.57;101133.75;4991176;28;20038;-76
2022/04/13 03:47:12;;;;;;;1.25;1.15;;;;;;;20.05;43.39;101137.59;4993692;28;20027;-76
2022/04/13 03:49:37;;;;;;;1.38;1.23;;;;;;;20.05;43.39;101134.84;4994493;28;20448;-76
2022/04/13 03:52:03;;;;;;;1.98;1.48;;;;;;;20.04;43.38;101138.72;4994762;28;20031;-76
2022/04/13 03:54:28;;;;;;;1.27;1.17;;;;;;;20.04;43.53;101127.69;4994804;28;20042;-77
2022/04/13 03:56:54;;;;;;;1.88;1.40;;;;;;;20.03;43.45;101137.84;4994260;28;20460;-76
2022/04/13 03:59:20;;;;;;;2.10;1.60;;;;;;;20.03;43.51;101137.84;4995040;28;20034;-77
2022/04/13 04:01:46;;;;;;;1.40;1.30;;;;;;;20.03;43.40;101143.38;4994600;28;20034;-76
2022/04/13 04:04:12;;;;;;;1.48;1.38;;;;;;;20.04;43.43;101146.97;4993962;28;20514;-75
2022/04/13 04:06:37;;;;;;;1.55;1.20;;;;;;;20.04;43.27;101156.06;4994905;28;20470;-76
2022/04/13 04:09:02;;;;;;;1.65;1.30;;;;;;;20.04;43.25;101155.22;4994751;28;20072;-76
2022/04/13 04:11:28;;;;;;;1.50;1.40;;;;;;;20.03;43.28;101159.88;4977325;28;20042;-76
2022/04/13 04:13:53;;;;;;;1.35;1.25;;;;;;;20.03;43.28;101159.06;4976800;28;20031;-76
2022/04/13 04:16:19;;;;;;;1.33;1.23;;;;;;;20.03;43.34;101164.59;4994456;28;20034;-75
2022/04/13 04:18:45;;;;;;;1.45;1.35;;;;;;;20.03;43.44;101165.41;4994695;28;20519;-76
2022/04/13 04:21:11;;;;;;;1.20;1.10;;;;;;;20.03;43.40;101167.34;4994117;28;20042;-76
2022/04/13 04:23:36;;;;;;;1.45;1.15;;;;;;;20.03;43.41;101173.66;4994341;28;20471;-75
2022/04/13 04:26:02;;;;;;;1.30;1.20;;;;;;;20.03;43.37;101170.09;4994282;28;20157;-75
2022/04/13 04:28:27;;;;;;;1.42;1.33;;;;;;;20.02;43.58;101173.94;4976956;28;20056;-75
2022/04/13 04:30:52;;;;;;;1.83;1.73;;;;;;;20.03;43.57;101172.84;4993948;28;20042;-75
2022/04/13 04:33:18;;;;;;;1.58;1.27;;;;;;;20.02;43.65;101174.78;4994212;28;20037;-75
2022/04/13 04:35:47;;;;;;;1.77;1.40;;;;;;;20.02;43.44;101169.28;4993876;28;20034;-75
2022/04/13 04:38:13;;;;;;;1.92;1.23;;;;;;;20.02;43.52;101174.78;4994188;28;20037;-75
2022/04/13 04:40:39;;;;;;;1.30;1.20;;;;;;;20.01;43.64;101189.66;4976863;28;20053;-75
2022/04/13 04:43:04;;;;;;;1.60;1.50;;;;;;;20.01;43.59;101192.41;4994527;28;20401;-75
2022/04/13 04:45:30;;;;;;;1.10;1.08;;;;;;;20.02;43.47;101187.72;4976635;28;20125;-75
2022/04/13 04:47:57;;;;;;;1.88;1.50;;;;;;;20.01;43.57;101195.16;4993917;28;20031;-75
2022/04/13 04:50:23;;;;;;;2.17;1.77;;;;;;;20.01;43.61;101200.66;4994052;28;20038;-75
2022/04/13 04:52:49;;;;;;;1.98;1.50;;;;;;;20.01;43.70;101203.41;4993850;28;20433;-77
2022/04/13 04:55:16;;;;;;;1.52;1.35;;;;;;;20.01;43.62;101217.19;4993456;28;20479;-75
2022/04/13 04:57:42;;;;;;;1.80;1.55;;;;;;;20.01;43.66;101214.44;4993763;28;20359;-76
2022/04/13 05:00:11;;;;;;;1.48;1.38;;;;;;;20.01;43.73;101217.19;4993548;28;20528;-77
2022/04/13 05:02:37;;;;;;;2.65;1.50;;;;;;;20.00;43.64;101210.00;4993624;28;20037;-76
2022/04/13 05:05:06;;;;;;;1.67;1.15;;;;;;;20.00;43.48;101212.75;4993307;28;20035;-76
2022/04/13 05:07:32;;;;;;;2.03;1.33;;;;;;;20.00;43.62;101215.53;4993724;28;20030;-77
2022/04/13 05:09:58;;;;;;;1.95;1.40;;;;;;;20.02;43.60;101223.50;4993351;28;20038;-78
2022/04/13 05:12:24;;;;;;;2.05;1.33;;;;;;;20.01;43.75;101219.94;4993467;28;20039;-78
2022/04/13 05:14:49;;;;;;;2.05;1.42;;;;;;;20.01;43.77;101222.69;4993817;28;20039;-75
2022/04/13 05:17:15;;;;;;;1.40;1.30;;;;;;;20.00;43.80;101223.78;4993984;28;20432;-76
2022/04/13 05:19:40;;;;;;;1.95;1.40;;;;;;;20.01;43.73;101230.94;4976146;28;20191;-77
2022/04/13 05:22:05;;;;;;;1.60;1.48;;;;;;;20.01;43.73;101233.72;4993698;28;20031;-74
2022/04/13 05:24:31;;;;;;;1.88;1.40;;;;;;;20.01;43.93;101230.13;4993558;28;20485;-61
2022/04/13 05:26:56;;;;;;;1.52;1.42;;;;;;;20.03;43.99;101244.44;4993421;28;20041;-68
2022/04/13 05:29:22;;;;;;;2.45;1.88;;;;;;;20.03;44.24;101242.50;4993096;28;20479;-66
2022/04/13 05:31:47;;;;;;;6.82;1.60;;;;;;;20.03;44.30;101244.44;4993242;28;20083;-63
2022/04/13 05:34:13;;;;;;;1.58;1.48;;;;;;;20.04;44.51;101252.44;4975460;28;20172;-66
2022/04/13 05:36:38;;;;;;;2.67;2.15;;;;;;;20.03;44.71;101252.72;4993290;28;20493;-64
2022/04/13 05:39:04;;;;;;;2.60;2.20;;;;;;;20.03;45.16;101249.97;4993217;28;20035;-65
2022/04/13 05:41:29;;;;;;;2.38;2.17;;;;;;;20.04;45.00;101251.63;4993447;28;20044;-65
2022/04/13 05:43:54;;;;;;;3.83;2.13;;;;;;;20.04;45.31;101266.22;4993118;28;20038;-65
2022/04/13 05:46:20;;;;;;;2.88;2.17;;;;;;;20.05;45.33;101270.63;4993120;28;20069;-65
2022/04/13 05:48:45;;;;;;;2.92;2.05;;;;;;;20.05;45.37;101270.63;4993330;28;20030;-65
2022/04/13 05:51:11;;;;;;;2.60;2.30;;;;;;;20.07;45.42;101267.59;4993108;28;20034;-65
2022/04/13 05:53:37;;;;;;;2.40;2.20;;;;;;;20.08;45.34;101261.84;4992936;28;20084;-65
2022/04/13 05:56:03;;;;;;;2.50;2.10;;;;;;;20.09;45.44;101268.16;4992658;28;20066;-65
2022/04/13 05:58:28;;;;;;;3.05;1.98;;;;;;;20.11;45.49;101274.25;4992937;28;20041;-65
2022/04/13 06:00:54;;;;;;;3.15;2.15;;;;;;;20.11;45.44;101274.25;4992855;28;20038;-65
2022/04/13 06:03:21;;;;;;;2.22;1.83;;;;;;;20.12;45.47;101281.38;4992977;28;20027;-65
2022/04/13 06:05:46;;;;;;;2.22;1.70;;;;;;;20.13;45.70;101286.63;4992278;28;20371;-65
2022/04/13 06:08:13;;;;;;;3.72;2.00;;;;;;;20.14;45.70;101285.53;4992789;28;20497;-65
2022/04/13 06:10:38;;;;;;;2.47;2.10;;;;;;;20.14;45.45;101288.28;4991995;28;20034;-65
2022/04/13 06:13:04;;;;;;;1.88;1.77;;;;;;;20.15;45.76;101297.38;4992716;28;20030;-65
2022/04/13 06:15:31;;;;;;;2.25;1.58;;;;;;;20.16;45.63;101290.78;4992303;28;20523;-65
2022/04/13 06:17:57;;;;;;;2.30;1.63;;;;;;;20.16;45.47;101297.09;4992563;28;20475;-65
2022/04/13 06:20:23;;;;;;;2.22;1.90;;;;;;;20.19;45.82;101300.44;4992293;28;20035;-68
2022/04/13 06:22:48;;;;;;;1.98;1.80;;;;;;;20.19;45.95;101301.25;4959163;28;20482;-66
2022/04/13 06:25:13;;;;;;;2.60;2.00;;;;;;;20.19;45.79;101312.28;4974870;28;20037;-66
2022/04/13 06:27:40;;;;;;;2.60;1.90;;;;;;;20.20;45.70;101308.44;4992423;28;20531;-66
2022/04/13 06:30:07;;;;;;;2.45;1.75;;;;;;;20.21;45.84;101320.28;5007489;28;20040;-65
2022/04/13 06:32:34;;;;;;;1.98;1.75;;;;;;;20.21;45.52;101303.75;4992361;28;20038;-65
2022/04/13 06:35:00;;;;;;;2.20;1.95;;;;;;;20.21;45.67;101301.84;4991537;28;20092;-66
2022/04/13 06:37:26;;;;;;;3.22;1.88;;;;;;;20.21;45.67;101310.09;4992279;28;20030;-66
2022/04/13 06:39:51;;;;;;;4.72;1.83;;;;;;;20.22;45.85;101308.97;4992312;28;20092;-66
2022/04/13 06:42:17;;;;;;;1.95;1.80;;;;;;;20.23;45.46;101315.34;4992282;28;20037;-66
2022/04/13 06:44:43;;;;;;;3.03;1.80;;;;;;;20.24;46.04;101325.25;4992082;28;20433;-65
2022/04/13 06:47:08;;;;;;;2.83;1.90;;;;;;;20.25;46.05;101324.16;4991445;28;20406;-66
2022/04/13 06:49:33;;;;;;;3.65;1.95;;;;;;;20.26;45.95;101332.16;4992027;28;20066;-66
2022/04/13 06:51:59;;;;;;;3.35;2.10;;;;;;;20.27;45.99;101335.72;4991990;28;20041;-66
2022/04/13 06:54:27;;;;;;;2.38;1.90;;;;;;;20.27;45.92;101347.59;4980492;28;20042;-66
2022/04/13 06:56:52;;;;;;;2.40;2.00;;;;;;;20.28;45.95;101348.41;5011554;28;20054;-65
2022/04/13 06:59:17;;;;;;;3.28;2.22;;;;;;;20.29;45.85;101355.59;5011591;28;20052;-66
2022/04/13 07:01:43;;;;;;;3.78;2.42;;;;;;;20.28;45.66;101362.19;5011621;28;20060;-66
2022/04/13 07:04:08;;;;;;;2.38;2.17;;;;;;;20.28;45.82;101360.25;5010813;28;20049;-66
2022/04/13 07:06:34;;;;;;;2.85;2.13;;;;;;;20.28;46.02;101363.00;5011434;28;20486;-66
2022/04/13 07:08:59;;;;;;;2.33;2.13;;;;;;;20.28;45.75;101367.69;4994143;28;20110;-66
2022/04/13 07:11:24;;;;;;;2.53;2.00;;;;;;;20.28;45.69;101367.69;4994012;28;20466;-65
2022/04/13 07:13:50;;;;;;;2.88;2.22;;;;;;;20.26;46.03;101365.22;4993867;28;20370;-66
2022/04/13 07:16:15;;;;;;;3.70;2.45;;;;;;;20.26;45.69;101378.16;4993827;28;20383;-66
2022/04/13 07:18:40;;;;;;;2.88;2.40;;;;;;;20.25;45.95;101388.34;5011586;28;20034;-66
2022/04/13 07:21:06;;;;;;;4.05;2.50;;;;;;;20.25;45.77;101384.75;5010151;28;20533;-66
2022/04/13 07:23:31;;;;;;;4.20;2.53;;;;;;;20.26;45.89;101386.44;5011059;28;20042;-66
2022/04/13 07:25:57;;;;;;;3.47;2.50;;;;;;;20.26;45.94;101389.19;5010831;28;20073;-66
2022/04/13 07:28:22;;;;;;;2.67;2.20;;;;;;;20.26;45.76;101389.19;5011102;28;20022;-66
2022/04/13 07:30:47;;;;;;;3.58;2.45;;;;;;;20.27;46.10;101379.81;5011211;28;20041;-66
2022/04/13 07:33:13;;;;;;;2.67;2.30;;;;;;;20.27;45.95;101399.09;5011125;28;20117;-66
2022/04/13 07:35:38;;;;;;;3.00;2.50;;;;;;;20.27;46.01;101396.34;4993066;28;20355;-66
2022/04/13 07:38:03;;;;;;;3.75;2.60;;;;;;;20.26;46.14;101398.28;4993806;28;20079;-66
2022/04/13 07:40:29;;;;;;;3.95;2.60;;;;;;;20.28;45.90;101403.50;5011050;28;20044;-66
2022/04/13 07:42:54;;;;;;;3.50;2.58;;;;;;;20.28;45.97;101398.00;4993350;28;20078;-66
2022/04/13 07:45:20;;;;;;;4.70;2.85;;;;;;;20.30;46.14;101401.34;5010955;28;20493;-66
2022/04/13 07:47:46;;;;;;;4.50;2.83;;;;;;;20.28;46.02;101398.81;5010720;28;20084;-66
2022/04/13 07:50:12;;;;;;;2.60;2.40;;;;;;;20.29;45.94;101399.66;5010651;28;20034;-66
2022/04/13 07:52:38;;;;;;;4.22;2.63;;;;;;;20.29;46.03;101402.44;4993451;28;20038;-66
2022/04/13 07:55:05;;;;;;;3.58;2.40;;;;;;;20.29;46.20;101397.72;5010580;28;20390;-66
2022/04/13 07:57:30;;;;;;;2.50;2.30;;;;;;;20.30;46.09;101398.59;5010995;28;20462;-66
2022/04/13 07:59:55;;;;;;;2.78;2.50;;;;;;;20.30;45.97;101404.91;4993053;28;20046;-66
2022/04/13 08:02:22;;;;;;;2.80;2.28;;;;;;;20.31;46.08;101412.09;4993357;28;20045;-66
2022/04/13 08:04:47;;;;;;;2.47;2.10;;;;;;;20.32;46.08;101422.00;5010276;28;20038;-66
2022/04/13 08:07:14;;;;;;;2.70;2.22;;;;;;;20.34;46.28;101418.97;5010719;28;20359;-66
2022/04/13 08:09:40;;;;;;;2.30;2.10;;;;;;;20.35;46.11;101422.56;5010300;28;20081;-66
2022/04/13 08:12:06;;;;;;;2.80;2.60;;;;;;;20.36;46.10;101421.47;5010568;28;20030;-66
2022/04/13 08:14:31;;;;;;;2.90;2.30;;;;;;;20.37;46.18;101423.94;4993006;28;20036;-66
2022/04/13 08:16:57;;;;;;;2.63;2.33;;;;;;;20.39;46.22;101429.19;5010541;28;20042;-66
2022/04/13 08:19:26;;;;;;;2.88;2.22;;;;;;;20.39;46.08;101429.19;5010480;28;20075;-66
2022/04/13 08:21:51;;;;;;;2.75;2.45;;;;;;;20.40;46.03;101430.84;4992909;28;20435;-66
2022/04/13 08:24:19;;;;;;;2.90;2.28;;;;;;;20.41;46.06;101438.84;5025493;28;20030;-66
2022/04/13 08:26:44;;;;;;;3.28;2.25;;;;;;;20.41;46.19;101438.03;4993324;28;20034;-66
2022/04/13 08:29:10;;;;;;;3.50;2.17;;;;;;;20.41;46.41;101432.53;5010427;28;20531;-66
2022/04/13 08:31:37;;;;;;;3.40;2.50;;;;;;;20.40;46.00;101437.19;4992722;28;20113;-66
2022/04/13 08:34:02;;;;;;;2.28;1.90;;;;;;;20.41;46.13;101438.03;4995438;28;20038;-66
2022/04/13 08:36:27;;;;;;;4.43;2.20;;;;;;;20.42;46.37;101439.69;5013622;28;20075;-66
2022/04/13 08:38:53;;;;;;;2.83;2.08;;;;;;;20.42;46.45;101448.78;4996527;28;20098;-66
2022/04/13 08:41:31;;;;;;;2.25;1.95;;;;;;;20.42;46.07;101442.47;5013701;28;20042;-66
2022/04/13 08:44:33;;;;;;;2.55;2.10;;;;;;;20.45;45.95;101451.00;4996220;28;20029;-66
2022/04/13 08:47:06;;;;;;;2.95;2.08;;;;;;;20.43;46.34;101458.72;5019783;28;20469;-66
2022/04/13 08:49:34;;;;;;;2.60;2.30;;;;;;;20.44;46.52;101457.59;5013584;28;20116;-66
2022/04/13 08:52:04;;;;;;;3.28;2.40;;;;;;;20.44;46.00;101457.59;5013511;28;20038;-66
2022/04/13 08:54:36;;;;;;;1.77;1.67;;;;;;;20.45;45.96;101450.19;5013890;28;20105;-66
2022/04/13 08:57:07;;;;;;;2.85;2.10;;;;;;;20.46;46.02;101452.69;5013392;28;20056;-66
2022/04/13 08:59:51;;;;;;;2.40;2.10;;;;;;;20.48;46.29;101460.69;5013173;28;20105;-66
2022/04/13 09:02:58;;;;;;;2.22;2.03;;;;;;;20.49;46.14;101467.81;5013438;28;20057;-66
2022/04/13 09:05:27;;;;;;;3.45;1.80;;;;;;;20.49;46.50;101468.69;5023908;28;20038;-66
2022/04/13 09:08:19;;;;;;;2.03;1.83;;;;;;;20.51;46.02;101469.22;5013742;28;20022;-66
2022/04/13 09:10:47;;;;;;;2.67;1.90;;;;;;;20.50;46.41;101475.81;5012996;28;20554;-66
2022/04/13 09:13:13;;;;;;;3.20;1.95;;;;;;;20.50;46.43;101475.81;5013138;28;20033;-66
2022/04/13 09:15:41;;;;;;;1.98;1.77;;;;;;;20.50;46.41;101475.00;5013084;28;20052;-66
2022/04/13 09:18:11;;;;;;;2.38;2.08;;;;;;;20.51;46.46;101483.00;5012958;28;20026;-66
2022/04/13 09:20:37;;;;;;;2.53;2.00;;;;;;;20.50;46.69;101484.09;5012902;28;20095;-66
2022/04/13 09:23:03;;;;;;;2.47;1.90;;;;;;;20.51;46.53;101493.22;5013329;28;20478;-66
2022/04/13 09:25:31;;;;;;;1.67;1.58;;;;;;;20.50;46.40;101486.03;5013134;28;20030;-66
2022/04/13 09:27:59;;;;;;;2.83;1.70;;;;;;;20.50;46.81;101486.84;5012906;28;20122;-66
2022/04/13 09:30:24;;;;;;;3.63;1.70;;;;;;;20.51;46.41;101494.03;5012804;28;20029;-66
2022/04/13 09:32:50;;;;;;;2.53;1.60;;;;;;;20.50;46.48;101489.59;4995310;28;20030;-66
2022/04/13 09:35:17;;;;;;;2.20;1.67;;;;;;;20.50;46.36;101506.16;4994914;28;20028;-66
2022/04/13 09:37:43;;;;;;;2.00;1.70;;;;;;;20.50;46.41;101497.88;5012704;28;20555;-64
2022/04/13 09:40:10;;;;;;;2.42;1.70;;;;;;;20.51;46.67;101504.25;5012554;28;20073;-63
2022/04/13 09:42:36;;;;;;;3.05;1.88;;;;;;;20.51;47.36;101498.72;5012520;28;20405;-63
2022/04/13 09:45:02;;;;;;;2.13;1.70;;;;;;;20.51;47.27;101507.00;5011967;28;20050;-69
2022/04/13 09:47:33;;;;;;;1.90;1.73;;;;;;;20.55;48.07;101513.63;5010832;28;20522;-66
2022/04/13 09:49:59;;;;;;;3.53;1.63;;;;;;;20.59;47.36;101505.66;4994394;28;20415;-66
2022/04/13 09:52:41;;;;;;;1.75;1.65;;;;;;;20.61;46.73;101515.31;5012477;28;20158;-65
2022/04/13 09:55:12;;;;;;;1.67;1.58;;;;;;;20.60;47.32;101518.34;5012391;28;20038;-70
2022/04/13 09:57:37;;;;;;;2.17;1.85;;;;;;;20.60;48.36;101516.41;4995033;28;20050;-68
2022/04/13 10:00:07;;;;;;;2.67;1.60;;;;;;;20.58;47.22;101513.09;5012355;28;20442;-75
2022/04/13 10:02:37;;;;;;;1.40;1.30;;;;;;;20.57;47.35;101518.88;5012393;28;20094;-73
2022/04/13 10:05:07;;;;;;;2.83;1.40;;;;;;;20.55;47.35;101515.53;5011961;28;20042;-78
2022/04/13 10:07:33;;;;;;;1.40;1.30;;;;;;;20.56;50.44;101520.78;4995384;28;20022;-70
2022/04/13 10:09:59;;;;;;;1.70;1.60;;;;;;;20.56;48.15;101514.47;4994923;28;20355;-71
2022/04/13 10:12:24;;;;;;;1.67;1.58;;;;;;;20.56;47.88;101517.22;4994693;28;20065;-71
2022/04/13 10:14:50;;;;;;;1.48;1.38;;;;;;;20.54;47.90;101520.25;5011891;28;20037;-71
2022/04/13 10:17:16;;;;;;;1.42;1.33;;;;;;;20.54;47.76;101517.50;5012210;28;20030;-71
2022/04/13 10:19:54;;;;;;;1.88;1.58;;;;;;;20.55;47.39;101521.06;4978460;28;20371;-71
2022/04/13 10:22:19;;;;;;;1.58;1.30;;;;;;;20.53;47.70;101517.75;5012272;28;20038;-71
2022/04/13 10:24:45;;;;;;;1.45;1.35;;;;;;;20.53;47.90;101526.03;5012134;28;20030;-71
2022/04/13 10:27:10;;;;;;;1.95;1.40;;;;;;;20.55;47.70;101526.56;5012143;28;20042;-71
2022/04/13 10:29:37;;;;;;;1.63;1.52;;;;;;;20.52;47.65;101519.66;5012032;28;20416;-71
2022/04/13 10:32:22;;;;;;;2.85;1.42;;;;;;;20.55;47.39;101521.06;5011866;28;20045;-71
2022/04/13 10:34:59;;;;;;;2.33;1.48;;;;;;;20.54;48.00;101522.19;5011566;28;20454;-71
2022/04/13 10:37:26;;;;;;;1.75;1.50;;;;;;;20.53;47.79;101524.09;5012211;28;20087;-71
2022/04/13 10:39:58;;;;;;;1.80;1.70;;;;;;;20.54;47.95;101535.97;4994324;28;20030;-71
2022/04/13 10:42:28;;;;;;;2.78;1.83;;;;;;;20.54;47.92;101544.22;5012436;28;20129;-72
2022/04/13 10:45:07;;;;;;;1.80;1.70;;;;;;;20.56;48.06;101550.28;5011705;28;20037;-70
2022/04/13 10:48:08;;;;;;;3.50;1.90;;;;;;;20.60;47.93;101534.88;5017071;28;20043;-67
2022/04/13 10:50:36;;;;;;;2.38;1.60;;;;;;;20.57;48.27;101539.00;5031227;28;20033;-68
2022/04/13 10:53:10;;;;;;;1.80;1.70;;;;;;;20.59;47.93;101538.75;5026414;28;20116;-69
2022/04/13 10:55:36;;;;;;;2.67;1.90;;;;;;;20.58;48.26;101553.59;5031235;28;20037;-71
2022/04/13 10:58:29;;;;;;;1.95;1.70;;;;;;;20.59;47.84;101552.53;5030921;28;20061;-68
2022/04/13 11:01:01;;;;;;;;;;;;;;;20.61;47.34;101558.59;5031942;28;20064;-68
2022/04/13 11:03:32;;;;;;;1.52;1.42;;;;;;;20.59;48.05;101569.06;5031213;28;19958;-69
2022/04/13 11:05:57;;;;;;;1.70;1.52;;;;;;;20.58;48.05;101571.00;5030772;28;20032;-68
2022/04/13 11:08:38;;;;;;;2.22;1.92;;;;;;;20.59;48.01;101563.53;5031273;28;20029;-68
2022/04/13 11:11:04;;;;;;;2.50;2.08;;;;;;;20.59;48.58;101558.84;5030561;28;20468;-69
2022/04/13 11:13:32;;;;;;;2.28;1.88;;;;;;;20.62;48.38;101565.78;5011530;28;20029;-68
2022/04/13 11:16:13;;;;;;;2.15;1.92;;;;;;;20.62;47.83;101566.59;5030100;28;20174;-67
2022/04/13 11:18:39;;;;;;;2.07;1.97;;;;;;;20.61;48.35;101555.81;5030516;28;20461;-67
2022/04/13 11:21:08;;;;;;;2.30;1.92;;;;;;;20.60;48.10;101555.00;5030205;28;20044;-67
2022/04/13 11:23:49;;;;;;;3.35;2.17;;;;;;;20.63;47.85;101561.94;5012677;28;20090;-67